createdAt,value
2023-04-25T00:01:55.752Z,3.19
2023-04-25T00:04:23.011Z,3.19
2023-04-25T00:06:49.772Z,3.14
2023-04-25T00:09:16.329Z,3.08
2023-04-25T00:11:42.893Z,3.06
2023-04-25T00:14:09.370Z,3.05
2023-04-25T00:16:36.648Z,3.02
2023-04-25T00:19:04.080Z,2.98
2023-04-25T00:21:32.644Z,2.89
2023-04-25T00:23:59.376Z,2.89
2023-04-25T00:26:26.095Z,2.84
2023-04-25T00:28:52.968Z,2.82
2023-04-25T00:31:19.739Z,2.81
2023-04-25T00:33:46.278Z,2.76
2023-04-25T00:36:12.923Z,2.72
2023-04-25T00:38:39.475Z,2.70
2023-04-25T00:41:08.202Z,2.70
2023-04-25T00:43:35.102Z,2.66
2023-04-25T00:46:02.326Z,2.64
2023-04-25T00:48:28.867Z,2.61
2023-04-25T00:50:58.459Z,2.57
2023-04-25T00:53:26.842Z,2.52
2023-04-25T00:55:54.278Z,2.53
2023-04-25T00:58:22.247Z,2.52
2023-04-25T01:00:51.156Z,2.48
2023-04-25T01:03:20.822Z,2.46
2023-04-25T01:05:48.100Z,2.43
2023-04-25T01:08:15.364Z,2.40
2023-04-25T01:10:41.937Z,2.35
2023-04-25T01:13:09.098Z,2.32
2023-04-25T01:15:36.965Z,2.30
2023-04-25T01:18:07.321Z,2.24
2023-04-25T01:20:35.160Z,2.22
2023-04-25T01:23:03.885Z,2.19
2023-04-25T01:25:31.897Z,2.13
2023-04-25T01:27:59.782Z,2.08
2023-04-25T01:30:30.239Z,2.06
2023-04-25T01:32:57.719Z,2.00
2023-04-25T01:35:27.497Z,1.97
2023-04-25T01:37:54.710Z,1.96
2023-04-25T01:40:23.500Z,1.91
2023-04-25T01:42:50.278Z,1.82
2023-04-25T01:45:17.248Z,1.78
2023-04-25T01:47:44.889Z,1.78
2023-04-25T01:50:12.382Z,1.71
2023-04-25T01:52:39.316Z,1.69
2023-04-25T01:55:07.201Z,1.65
2023-04-25T01:57:33.867Z,1.62
2023-04-25T02:00:04.753Z,1.59
2023-04-25T02:02:31.449Z,1.59
2023-04-25T02:04:58.068Z,1.56
2023-04-25T02:07:24.583Z,1.51
2023-04-25T02:09:51.142Z,1.50
2023-04-25T02:12:17.689Z,1.45
2023-04-25T02:14:44.158Z,1.46
2023-04-25T02:17:11.162Z,1.41
2023-04-25T02:19:37.853Z,1.35
2023-04-25T02:22:04.483Z,1.31
2023-04-25T02:24:31.024Z,1.31
2023-04-25T02:26:57.542Z,1.29
2023-04-25T02:29:24.244Z,1.24
2023-04-25T02:31:50.875Z,1.20
2023-04-25T02:34:17.509Z,1.18
2023-04-25T02:36:44.134Z,1.17
2023-04-25T02:39:11.502Z,1.12
2023-04-25T02:41:38.170Z,1.10
2023-04-25T02:44:04.688Z,1.07
2023-04-25T02:46:38.923Z,1.06
2023-04-25T02:49:06.748Z,1.02
2023-04-25T02:51:33.661Z,1.00
2023-04-25T02:54:00.358Z,1.01
2023-04-25T02:56:27.291Z,0.99
2023-04-25T02:58:54.752Z,0.95
2023-04-25T03:01:21.792Z,0.94
2023-04-25T03:03:48.447Z,0.88
2023-04-25T03:06:16.526Z,0.87
2023-04-25T03:08:43.866Z,0.87
2023-04-25T03:11:10.679Z,0.84
2023-04-25T03:13:37.294Z,0.82
2023-04-25T03:16:03.996Z,0.79
2023-04-25T03:18:30.633Z,0.76
2023-04-25T03:20:57.123Z,0.71
2023-04-25T03:23:23.766Z,0.71
2023-04-25T03:25:50.583Z,0.70
2023-04-25T03:28:17.115Z,0.69
2023-04-25T03:30:43.852Z,0.67
2023-04-25T03:33:10.580Z,0.64
2023-04-25T03:35:37.263Z,0.64
2023-04-25T03:38:03.739Z,0.61
2023-04-25T03:40:30.263Z,0.59
2023-04-25T03:42:57.048Z,0.58
2023-04-25T03:45:23.632Z,0.56
2023-04-25T03:47:50.905Z,0.53
2023-04-25T03:50:17.576Z,0.53
2023-04-25T03:52:44.827Z,0.46
2023-04-25T03:55:11.540Z,0.48
2023-04-25T03:57:38.101Z,0.44
2023-04-25T04:00:05.586Z,0.43
2023-04-25T04:02:34.162Z,0.40
2023-04-25T04:05:01.189Z,0.35
2023-04-25T04:07:27.885Z,0.32
2023-04-25T04:09:54.400Z,0.33
2023-04-25T04:12:21.015Z,0.28
2023-04-25T04:14:47.640Z,0.27
2023-04-25T04:17:14.471Z,0.28
2023-04-25T04:19:40.988Z,0.24
2023-04-25T04:22:07.553Z,0.23
2023-04-25T04:24:34.188Z,0.20
2023-04-25T04:27:00.799Z,0.18
2023-04-25T04:29:27.497Z,0.15
2023-04-25T04:31:54.123Z,0.14
2023-04-25T04:34:20.783Z,0.17
2023-04-25T04:36:48.075Z,0.13
2023-04-25T04:39:15.231Z,0.16
2023-04-25T04:41:41.801Z,0.10
2023-04-25T04:44:10.004Z,0.09
2023-04-25T04:46:38.874Z,0.06
2023-04-25T04:49:10.405Z,0.05
2023-04-25T04:51:37.775Z,0.05
2023-04-25T04:54:05.518Z,0.02
2023-04-25T04:56:32.131Z,0.03
2023-04-25T04:58:59.846Z,0.04
2023-04-25T05:01:27.431Z,0.03
2023-04-25T05:03:54.715Z,0.03
2023-04-25T05:06:21.847Z,0.04
2023-04-25T05:08:48.418Z,0.04
2023-04-25T05:11:14.963Z,0.05
2023-04-25T05:13:41.450Z,0.04
2023-04-25T05:16:08.122Z,0.06
2023-04-25T05:18:34.755Z,0.05
2023-04-25T05:21:01.251Z,0.05
2023-04-25T05:23:29.039Z,0.07
2023-04-25T05:25:55.651Z,0.07
2023-04-25T05:28:22.223Z,0.07
2023-04-25T05:30:49.035Z,0.09
2023-04-25T05:33:15.874Z,0.09
2023-04-25T05:35:42.903Z,0.10
2023-04-25T05:38:09.434Z,0.10
2023-04-25T05:40:36.283Z,0.08
2023-04-25T05:43:02.762Z,0.10
2023-04-25T05:45:29.353Z,0.12
2023-04-25T05:47:56.149Z,0.12
2023-04-25T05:50:22.817Z,0.12
2023-04-25T05:52:49.451Z,0.12
2023-04-25T05:55:16.675Z,0.12
2023-04-25T05:57:46.071Z,0.14
2023-04-25T06:00:16.880Z,0.16
2023-04-25T06:02:43.468Z,0.14
2023-04-25T06:05:10.360Z,0.19
2023-04-25T06:07:37.090Z,0.22
2023-04-25T06:10:07.352Z,0.23
2023-04-25T06:12:34.521Z,0.23
2023-04-25T06:15:02.245Z,0.24
2023-04-25T06:17:29.229Z,0.28
2023-04-25T06:19:55.748Z,0.33
2023-04-25T06:22:22.354Z,0.35
2023-04-25T06:24:49.140Z,0.38
2023-04-25T06:27:17.111Z,0.40
2023-04-25T06:29:43.764Z,0.41
2023-04-25T06:32:11.407Z,0.44
2023-04-25T06:34:37.919Z,0.48
2023-04-25T06:37:04.462Z,0.53
2023-04-25T06:39:31.089Z,0.53
2023-04-25T06:41:57.595Z,0.57
2023-04-25T06:44:25.122Z,0.59
2023-04-25T06:46:51.714Z,0.65
2023-04-25T06:49:18.360Z,0.66
2023-04-25T06:51:44.883Z,0.69
2023-04-25T06:54:11.407Z,0.75
2023-04-25T06:56:38.101Z,0.78
2023-04-25T06:59:04.650Z,0.82
2023-04-25T07:01:31.838Z,0.85
2023-04-25T07:03:58.561Z,0.90
2023-04-25T07:06:26.965Z,0.95
2023-04-25T07:08:53.669Z,0.99
2023-04-25T07:11:20.786Z,1.07
2023-04-25T07:13:47.289Z,1.10
2023-04-25T07:16:13.952Z,1.15
2023-04-25T07:18:40.862Z,1.20
2023-04-25T07:21:07.747Z,1.28
2023-04-25T07:23:34.310Z,1.35
2023-04-25T07:26:01.021Z,1.43
2023-04-25T07:28:27.638Z,1.50
2023-04-25T07:30:54.195Z,1.62
2023-04-25T07:33:21.575Z,1.70
2023-04-25T07:35:48.328Z,1.80
2023-04-25T07:38:14.942Z,1.91
2023-04-25T07:40:41.443Z,2.04
2023-04-25T07:43:08.263Z,2.18
2023-04-25T07:45:35.200Z,2.33
2023-04-25T07:48:05.168Z,2.47
2023-04-25T07:50:31.864Z,2.59
2023-04-25T07:52:58.410Z,2.72
2023-04-25T07:55:24.975Z,2.87
2023-04-25T07:57:51.579Z,3.01
2023-04-25T08:00:18.760Z,3.16
2023-04-25T08:02:46.043Z,3.32
2023-04-25T08:05:17.817Z,3.47
2023-04-25T08:07:46.425Z,3.63
2023-04-25T08:10:12.917Z,3.80
2023-04-25T08:12:39.433Z,3.94
2023-04-25T08:15:07.318Z,4.09
2023-04-25T08:17:33.896Z,4.27
2023-04-25T08:20:00.434Z,4.43
2023-04-25T08:22:26.948Z,4.60
2023-04-25T08:24:53.439Z,4.81
2023-04-25T08:27:20.140Z,5.02
2023-04-25T08:29:46.672Z,5.25
2023-04-25T08:32:13.213Z,5.46
2023-04-25T08:34:43.103Z,5.69
2023-04-25T08:37:10.862Z,5.93
2023-04-25T08:39:38.311Z,6.17
2023-04-25T08:42:11.182Z,6.40
2023-04-25T08:44:37.817Z,6.61
2023-04-25T08:47:06.037Z,6.82
2023-04-25T08:49:36.087Z,7.06
2023-04-25T08:52:07.368Z,7.29
2023-04-25T08:54:35.548Z,7.51
2023-04-25T08:57:05.268Z,7.74
2023-04-25T08:59:33.498Z,7.95
2023-04-25T09:02:04.223Z,8.17
2023-04-25T09:04:32.882Z,8.38
2023-04-25T09:06:59.857Z,8.59
2023-04-25T09:09:26.393Z,8.78
2023-04-25T09:11:55.476Z,8.99
2023-04-25T09:14:23.983Z,9.19
2023-04-25T09:16:56.909Z,9.39
2023-04-25T09:19:39.774Z,9.58
2023-04-25T09:22:08.523Z,9.79
2023-04-25T09:24:43.544Z,10.01
2023-04-25T09:27:19.190Z,10.20
2023-04-25T09:29:45.798Z,10.39
2023-04-25T09:32:24.425Z,10.60
2023-04-25T09:34:53.458Z,10.80
2023-04-25T09:37:21.641Z,11.02
2023-04-25T09:40:00.369Z,11.22
2023-04-25T09:42:29.920Z,11.44
2023-04-25T09:44:57.919Z,11.60
2023-04-25T09:47:26.469Z,11.78
2023-04-25T09:49:53.901Z,11.98
2023-04-25T09:52:25.139Z,12.13
2023-04-25T09:54:53.008Z,12.32
2023-04-25T09:57:20.268Z,12.54
2023-04-25T09:59:51.885Z,12.67
2023-04-25T10:02:21.549Z,12.84
2023-04-25T10:04:56.124Z,13.04
2023-04-25T10:07:31.109Z,13.23
2023-04-25T10:10:05.262Z,13.42
2023-04-25T10:12:34.179Z,13.57
2023-04-25T10:15:01.736Z,13.69
2023-04-25T10:17:29.032Z,13.80
2023-04-25T10:19:56.105Z,13.92
2023-04-25T10:22:46.072Z,14.05
2023-04-25T10:25:14.490Z,14.14
2023-04-25T10:27:41.327Z,14.26
2023-04-25T10:30:16.279Z,14.35
2023-04-25T10:32:44.774Z,14.49
2023-04-25T10:35:19.801Z,14.65
2023-04-25T10:37:57.706Z,14.76
2023-04-25T10:40:24.465Z,14.89
2023-04-25T10:42:54.404Z,15.00
2023-04-25T10:45:21.348Z,15.13
2023-04-25T10:47:47.999Z,15.27
2023-04-25T10:50:18.440Z,15.41
2023-04-25T10:52:45.700Z,15.52
2023-04-25T10:55:12.368Z,15.62
2023-04-25T10:57:44.323Z,15.74
2023-04-25T11:00:12.846Z,15.87
2023-04-25T11:02:44.188Z,16.00
2023-04-25T11:05:11.415Z,16.14
2023-04-25T11:08:00.050Z,16.23
2023-04-25T11:10:36.305Z,16.27
2023-04-25T11:13:03.041Z,16.34
2023-04-25T11:15:29.837Z,16.41
2023-04-25T11:17:56.856Z,16.49
2023-04-25T11:20:27.041Z,16.61
2023-04-25T11:22:53.945Z,16.73
2023-04-25T11:25:21.100Z,16.85
2023-04-25T11:27:51.285Z,16.94
2023-04-25T11:30:19.033Z,17.04
2023-04-25T11:32:46.500Z,17.10
2023-04-25T11:35:14.119Z,16.87
2023-04-25T11:37:42.092Z,16.08
2023-04-25T11:40:10.659Z,15.47
2023-04-25T11:42:45.153Z,15.28
2023-04-25T11:45:11.918Z,15.28
2023-04-25T11:47:38.933Z,15.28
2023-04-25T11:50:08.547Z,15.29
2023-04-25T11:52:43.864Z,15.15
2023-04-25T11:55:21.258Z,14.96
2023-04-25T11:57:50.407Z,15.00
2023-04-25T12:00:22.199Z,15.08
2023-04-25T12:02:53.503Z,15.07
2023-04-25T12:05:32.247Z,15.39
2023-04-25T12:08:14.363Z,15.50
2023-04-25T12:10:42.193Z,15.55
2023-04-25T12:13:26.416Z,15.53
2023-04-25T12:15:55.381Z,15.67
2023-04-25T12:18:24.950Z,15.69
2023-04-25T12:20:53.334Z,15.73
2023-04-25T12:23:27.325Z,15.74
2023-04-25T12:25:53.942Z,15.69
2023-04-25T12:28:25.601Z,15.85
2023-04-25T12:30:56.001Z,15.90
2023-04-25T12:33:23.697Z,16.11
2023-04-25T12:35:50.222Z,16.22
2023-04-25T12:38:37.787Z,16.07
2023-04-25T12:41:04.387Z,15.91
2023-04-25T12:43:30.982Z,15.62
2023-04-25T12:45:58.064Z,15.73
2023-04-25T12:48:24.960Z,15.49
2023-04-25T12:50:52.894Z,15.71
2023-04-25T12:53:21.531Z,15.94
2023-04-25T12:55:48.681Z,16.23
2023-04-25T12:58:16.543Z,16.44
2023-04-25T13:00:44.097Z,16.48
2023-04-25T13:03:12.262Z,16.54
2023-04-25T13:05:40.041Z,16.42
2023-04-25T13:08:06.899Z,16.53
2023-04-25T13:10:34.924Z,16.80
2023-04-25T13:13:02.271Z,16.95
2023-04-25T13:15:29.244Z,16.87
2023-04-25T13:17:56.866Z,16.85
2023-04-25T13:20:23.721Z,17.08
2023-04-25T13:22:50.219Z,17.17
2023-04-25T13:25:17.558Z,17.08
2023-04-25T13:27:45.352Z,17.03
2023-04-25T13:30:12.472Z,17.17
2023-04-25T13:32:40.099Z,17.47
2023-04-25T13:35:12.117Z,17.40
2023-04-25T13:37:39.570Z,17.49
2023-04-25T13:40:10.559Z,17.38
2023-04-25T13:42:37.940Z,17.44
2023-04-25T13:45:04.714Z,17.92
2023-04-25T13:47:31.497Z,17.99
2023-04-25T13:49:58.029Z,17.83
2023-04-25T13:52:25.400Z,17.73
2023-04-25T13:54:52.242Z,17.75
2023-04-25T13:57:19.411Z,17.83
2023-04-25T13:59:47.094Z,17.45
2023-04-25T14:02:13.901Z,17.38
2023-04-25T14:04:40.436Z,17.03
2023-04-25T14:07:07.076Z,16.78
2023-04-25T14:09:33.649Z,17.11
2023-04-25T14:12:00.472Z,17.25
2023-04-25T14:14:27.170Z,17.52
2023-04-25T14:16:55.211Z,17.57
2023-04-25T14:19:22.546Z,17.69
2023-04-25T14:21:49.307Z,17.74
2023-04-25T14:24:16.040Z,17.77
2023-04-25T14:26:43.613Z,17.83
2023-04-25T14:29:12.604Z,18.06
2023-04-25T14:31:41.417Z,18.12
2023-04-25T14:34:08.859Z,18.27
2023-04-25T14:36:37.463Z,18.10
2023-04-25T14:39:06.315Z,17.75
2023-04-25T14:41:33.240Z,17.47
2023-04-25T14:43:59.817Z,17.49
2023-04-25T14:46:27.023Z,17.86
2023-04-25T14:48:54.251Z,17.96
2023-04-25T14:51:21.194Z,18.02
2023-04-25T14:53:47.941Z,18.17
2023-04-25T14:56:14.667Z,17.76
2023-04-25T14:58:41.635Z,17.63
2023-04-25T15:01:09.227Z,17.48
2023-04-25T15:03:36.306Z,18.28
2023-04-25T15:06:03.025Z,18.74
2023-04-25T15:08:29.554Z,19.01
2023-04-25T15:10:56.076Z,19.18
2023-04-25T15:13:22.652Z,19.23
2023-04-25T15:15:52.329Z,19.22
2023-04-25T15:18:25.754Z,19.13
2023-04-25T15:20:53.811Z,19.01
2023-04-25T15:23:21.097Z,18.91
2023-04-25T15:25:48.267Z,18.79
2023-04-25T15:28:17.887Z,18.67
2023-04-25T15:30:44.780Z,18.59
2023-04-25T15:33:11.774Z,18.51
2023-04-25T15:35:38.466Z,18.45
2023-04-25T15:38:05.330Z,18.38
2023-04-25T15:40:31.946Z,18.34
2023-04-25T15:42:58.492Z,18.27
2023-04-25T15:45:26.398Z,18.24
2023-04-25T15:47:55.218Z,18.21
2023-04-25T15:50:22.326Z,18.16
2023-04-25T15:52:50.499Z,18.11
2023-04-25T15:55:18.494Z,18.10
2023-04-25T15:57:45.062Z,18.13
2023-04-25T16:00:17.308Z,18.22
2023-04-25T16:02:45.578Z,18.30
2023-04-25T16:05:14.500Z,18.44
2023-04-25T16:07:42.757Z,18.59
2023-04-25T16:10:11.376Z,18.72
2023-04-25T16:12:39.520Z,18.82
2023-04-25T16:15:06.659Z,18.88
2023-04-25T16:17:33.799Z,18.90
2023-04-25T16:20:03.274Z,18.82
2023-04-25T16:22:29.780Z,18.71
2023-04-25T16:24:56.276Z,18.59
2023-04-25T16:27:22.816Z,18.48
2023-04-25T16:29:51.348Z,18.35
2023-04-25T16:32:18.345Z,18.23
2023-04-25T16:34:45.389Z,18.14
2023-04-25T16:37:11.924Z,18.06
2023-04-25T16:39:38.502Z,18.00
2023-04-25T16:42:05.942Z,17.94
2023-04-25T16:44:32.513Z,17.90
2023-04-25T16:46:59.324Z,17.86
2023-04-25T16:49:26.512Z,17.82
2023-04-25T16:51:53.166Z,17.85
2023-04-25T16:54:19.838Z,17.86
2023-04-25T16:56:46.558Z,17.86
2023-04-25T16:59:13.086Z,17.84
2023-04-25T17:01:39.637Z,17.82
2023-04-25T17:04:06.478Z,17.77
2023-04-25T17:06:33.386Z,17.68
2023-04-25T17:08:59.877Z,17.54
2023-04-25T17:11:26.721Z,17.37
2023-04-25T17:13:53.350Z,17.15
2023-04-25T17:16:23.059Z,17.02
2023-04-25T17:18:53.533Z,16.88
2023-04-25T17:21:20.265Z,16.71
2023-04-25T17:23:47.276Z,16.61
2023-04-25T17:26:14.285Z,16.48
2023-04-25T17:28:42.329Z,16.39
2023-04-25T17:31:09.777Z,16.31
2023-04-25T17:33:36.549Z,16.22
2023-04-25T17:36:04.226Z,16.16
2023-04-25T17:38:31.799Z,16.09
2023-04-25T17:40:58.800Z,16.03
2023-04-25T17:43:26.671Z,15.95
2023-04-25T17:45:53.750Z,15.91
2023-04-25T17:48:22.843Z,15.83
2023-04-25T17:50:49.553Z,15.74
2023-04-25T17:53:16.251Z,15.72
2023-04-25T17:55:43.837Z,15.60
2023-04-25T17:58:13.863Z,15.55
2023-04-25T18:00:40.426Z,15.46
2023-04-25T18:03:07.565Z,15.40
2023-04-25T18:05:34.379Z,15.35
2023-04-25T18:08:01.036Z,15.23
2023-04-25T18:10:27.938Z,15.15
2023-04-25T18:12:54.584Z,15.01
2023-04-25T18:15:22.139Z,14.88
2023-04-25T18:17:48.787Z,14.76
2023-04-25T18:20:16.766Z,14.70
2023-04-25T18:22:44.913Z,14.61
2023-04-25T18:25:12.102Z,14.48
2023-04-25T18:27:39.508Z,14.38
2023-04-25T18:30:09.007Z,14.30
2023-04-25T18:32:35.670Z,14.17
2023-04-25T18:35:02.589Z,14.09
2023-04-25T18:37:29.184Z,13.99
2023-04-25T18:39:55.930Z,13.92
2023-04-25T18:42:22.514Z,13.83
2023-04-25T18:44:49.088Z,13.73
2023-04-25T18:47:15.648Z,13.67
2023-04-25T18:49:42.275Z,13.58
2023-04-25T18:52:12.269Z,13.49
2023-04-25T18:54:39.228Z,13.42
2023-04-25T18:57:06.282Z,13.32
2023-04-25T18:59:33.381Z,13.22
2023-04-25T19:02:04.366Z,13.12
2023-04-25T19:04:31.336Z,13.03
2023-04-25T19:06:58.209Z,12.95
2023-04-25T19:09:25.219Z,12.90
2023-04-25T19:11:51.745Z,12.79
2023-04-25T19:14:18.653Z,12.73
2023-04-25T19:16:45.317Z,12.64
2023-04-25T19:19:12.520Z,12.57
2023-04-25T19:21:39.191Z,12.53
2023-04-25T19:24:06.980Z,12.43
2023-04-25T19:26:33.598Z,12.40
2023-04-25T19:29:12.520Z,12.31
2023-04-25T19:31:40.224Z,12.24
2023-04-25T19:34:07.743Z,12.20
2023-04-25T19:36:35.088Z,12.13
2023-04-25T19:39:04.595Z,12.09
2023-04-25T19:41:32.149Z,12.04
2023-04-25T19:44:00.829Z,11.99
2023-04-25T19:46:27.464Z,11.91
2023-04-25T19:48:54.046Z,11.84
2023-04-25T19:51:21.043Z,11.82
2023-04-25T19:53:47.598Z,11.76
2023-04-25T19:56:14.153Z,11.73
2023-04-25T19:58:40.697Z,11.70
2023-04-25T20:01:07.749Z,11.66
2023-04-25T20:03:34.453Z,11.62
2023-04-25T20:06:01.057Z,11.56
2023-04-25T20:08:27.560Z,11.47
2023-04-25T20:10:54.103Z,11.41
2023-04-25T20:13:20.687Z,11.41
2023-04-25T20:15:47.270Z,11.34
2023-04-25T20:18:13.953Z,11.20
2023-04-25T20:20:40.531Z,11.20
2023-04-25T20:23:07.073Z,11.12
2023-04-25T20:25:33.540Z,11.05
2023-04-25T20:28:00.187Z,10.98
2023-04-25T20:30:26.833Z,10.89
2023-04-25T20:32:53.390Z,10.89
2023-04-25T20:35:19.980Z,10.86
2023-04-25T20:37:46.564Z,10.77
2023-04-25T20:40:13.444Z,10.72
2023-04-25T20:42:40.240Z,10.68
2023-04-25T20:45:07.950Z,10.58
2023-04-25T20:47:34.891Z,10.49
2023-04-25T20:50:04.026Z,10.43
2023-04-25T20:52:32.066Z,10.41
2023-04-25T20:54:59.054Z,10.37
2023-04-25T20:57:26.108Z,10.32
2023-04-25T20:59:53.019Z,10.25
2023-04-25T21:02:20.094Z,10.18
2023-04-25T21:04:46.816Z,10.18
2023-04-25T21:07:13.686Z,10.11
2023-04-25T21:09:45.550Z,10.08
2023-04-25T21:12:12.301Z,10.00
2023-04-25T21:14:38.829Z,9.93
2023-04-25T21:17:05.390Z,9.87
2023-04-25T21:19:32.080Z,9.84
2023-04-25T21:21:59.298Z,9.77
2023-04-25T21:24:27.233Z,9.68
2023-04-25T21:26:54.020Z,9.62
2023-04-25T21:29:20.537Z,9.58
2023-04-25T21:31:47.302Z,9.55
2023-04-25T21:34:13.856Z,9.48
2023-04-25T21:36:41.361Z,9.42
2023-04-25T21:39:08.155Z,9.36
2023-04-25T21:41:34.816Z,9.32
2023-04-25T21:44:01.316Z,9.28
2023-04-25T21:46:27.857Z,9.19
2023-04-25T21:48:54.884Z,9.14
2023-04-25T21:51:22.845Z,9.12
2023-04-25T21:53:49.386Z,9.06
2023-04-25T21:56:16.230Z,8.99
2023-04-25T21:58:42.739Z,8.94
2023-04-25T22:01:09.996Z,8.85
2023-04-25T22:03:36.698Z,8.84
2023-04-25T22:06:03.970Z,8.80
2023-04-25T22:08:30.510Z,8.80
2023-04-25T22:10:57.204Z,8.73
2023-04-25T22:13:23.919Z,8.69
2023-04-25T22:15:50.865Z,8.66
2023-04-25T22:18:18.027Z,8.62
2023-04-25T22:20:44.939Z,8.56
2023-04-25T22:23:12.112Z,8.55
2023-04-25T22:25:38.924Z,8.54
2023-04-25T22:28:05.707Z,8.50
2023-04-25T22:30:32.633Z,8.43
2023-04-25T22:32:59.397Z,8.40
2023-04-25T22:35:26.213Z,8.37
2023-04-25T22:37:54.402Z,8.32
2023-04-25T22:40:21.031Z,8.30
2023-04-25T22:42:47.613Z,8.25
2023-04-25T22:45:14.681Z,8.23
2023-04-25T22:47:41.271Z,8.17
2023-04-25T22:50:13.358Z,8.17
2023-04-25T22:52:40.549Z,8.12
2023-04-25T22:55:07.385Z,8.09
2023-04-25T22:57:36.886Z,8.04
2023-04-25T23:00:08.340Z,8.01
2023-04-25T23:02:35.593Z,7.99
2023-04-25T23:05:02.594Z,7.99
2023-04-25T23:07:29.252Z,7.93
2023-04-25T23:09:55.710Z,7.92
2023-04-25T23:12:22.757Z,7.93
2023-04-25T23:14:53.624Z,7.91
2023-04-25T23:17:20.580Z,7.85
2023-04-25T23:19:48.336Z,7.83
2023-04-25T23:22:14.924Z,7.81
2023-04-25T23:24:41.444Z,7.79
2023-04-25T23:27:08.118Z,7.78
2023-04-25T23:29:34.808Z,7.74
2023-04-25T23:32:04.548Z,7.75
2023-04-25T23:34:31.738Z,7.70
2023-04-25T23:37:01.405Z,7.68
2023-04-25T23:39:28.396Z,7.64
2023-04-25T23:41:54.947Z,7.66
2023-04-25T23:44:22.232Z,7.61
2023-04-25T23:46:49.174Z,7.61
2023-04-25T23:49:15.843Z,7.57
2023-04-25T23:51:42.375Z,7.52
2023-04-25T23:54:08.905Z,7.52
2023-04-25T23:56:35.591Z,7.47
2023-04-25T23:59:02.169Z,7.47
